EGPM

Details ICAO EGPM (SDZ)
Name Scatsta
Region United Kingdom
Timezone Europe/London (UTC+1.0)
Plans Departing 22
Arriving 26
Stats Elevation 81 ft / 25 m (AMSL)
Location 60.432651° -1.296108°
Runways 1
Magnetic Variation 2.059° W
Sunrise 2018-05-21 03:12:11 UTC / 2018-05-21 04:12:11 Local
Sunset 2018-05-21 20:54:13 UTC / 2018-05-21 21:54:13 Local
Advertisement - Login to hide

Runways

ID Width Length Bearing (true) Bearing (mag) Surface Threshold Offset Overrun Length
06 102 ft / 31 m 4,442 ft / 1,354 m 55.29° 57.35° Asphalt 374 ft / 114 m 0 ft / 0 m
24 102 ft / 31 m 4,442 ft / 1,354 m 235.31° 237.37° Asphalt 308 ft / 94 m 0 ft / 0 m

Map

Weather


0- 5 10 15 20 25 30 35+ Temperature / ° C

Clouds and Precipitation
Forecast for 2018-05-21 18:00 UTC. Updated 4 hours ago

Ground ~20,000 ft ~40,000 ft Winds

METAR

EGPM 212020Z AUTO 35018KT 9999 BKN004/// OVC010/// 06/06 Q1023

TAF

Not found

Frequencies

Tower 123.60 MHz Scatsta Approach
Warning: Do not use this data for real-world aviation or navigation. No guarantee of current accuracy is given.